createdAt,value
2019-04-13T00:00:48.824Z,38.47
2019-04-13T00:03:23.631Z,36.13
2019-04-13T00:06:11.374Z,36.70
2019-04-13T00:08:46.104Z,37.17
2019-04-13T00:11:35.380Z,37.03
2019-04-13T00:14:10.120Z,37.30
2019-04-13T00:16:47.998Z,36.17
2019-04-13T00:19:22.728Z,36.83
2019-04-13T00:21:57.442Z,37.20
2019-04-13T00:24:32.187Z,37.57
2019-04-13T00:27:06.915Z,36.87
2019-04-13T00:29:41.635Z,37.00
2019-04-13T00:32:16.436Z,37.30
2019-04-13T00:34:51.185Z,36.57
2019-04-13T00:37:25.914Z,36.67
2019-04-13T00:40:00.871Z,37.37
2019-04-13T00:42:35.901Z,36.80
2019-04-13T00:45:11.806Z,35.97
2019-04-13T00:47:46.535Z,36.83
2019-04-13T00:50:21.322Z,37.73
2019-04-13T00:52:56.061Z,37.03
2019-04-13T00:55:30.875Z,36.97
2019-04-13T00:58:05.619Z,37.47
2019-04-13T01:00:45.488Z,37.47
2019-04-13T01:03:20.230Z,36.53
2019-04-13T01:05:55.024Z,36.13
2019-04-13T01:08:29.752Z,37.47
2019-04-13T01:11:04.715Z,35.50
2019-04-13T01:13:39.584Z,37.00
2019-04-13T01:16:14.309Z,36.07
2019-04-13T01:18:49.049Z,35.80
2019-04-13T01:21:23.866Z,36.77
2019-04-13T01:23:58.643Z,36.30
2019-04-13T01:26:33.359Z,36.80
2019-04-13T01:29:08.082Z,37.43
2019-04-13T01:31:42.812Z,36.57
2019-04-13T01:34:17.619Z,37.10
2019-04-13T01:36:52.358Z,37.43
2019-04-13T01:39:27.107Z,36.87
2019-04-13T01:42:02.451Z,36.73
2019-04-13T01:44:37.179Z,37.23
2019-04-13T01:47:11.896Z,36.33
2019-04-13T01:49:46.701Z,37.33
2019-04-13T01:52:21.427Z,37.00
2019-04-13T01:54:56.167Z,37.73
2019-04-13T01:57:30.887Z,38.10
2019-04-13T02:00:07.195Z,37.80
2019-04-13T02:02:53.691Z,37.37
2019-04-13T02:05:42.124Z,37.30
2019-04-13T02:08:38.844Z,37.43
2019-04-13T02:11:23.512Z,37.07
2019-04-13T02:13:58.306Z,37.80
2019-04-13T02:16:33.051Z,37.80
2019-04-13T02:19:07.767Z,37.77
2019-04-13T02:21:42.510Z,37.73
2019-04-13T02:24:18.279Z,37.97
2019-04-13T02:26:52.993Z,37.40
2019-04-13T02:29:27.736Z,38.23
2019-04-13T02:32:02.474Z,38.20
2019-04-13T02:34:39.391Z,37.40
2019-04-13T02:37:14.116Z,37.37
2019-04-13T02:39:48.905Z,37.00
2019-04-13T02:42:23.887Z,38.00
2019-04-13T02:44:58.700Z,38.83
2019-04-13T02:47:33.424Z,37.67
2019-04-13T02:50:09.344Z,37.87
2019-04-13T02:52:44.236Z,38.23
2019-04-13T02:55:19.055Z,39.37
2019-04-13T02:57:53.851Z,38.23
2019-04-13T03:00:28.663Z,38.87
2019-04-13T03:03:03.555Z,37.83
2019-04-13T03:05:46.893Z,37.93
2019-04-13T03:08:14.838Z,37.73
2019-04-13T03:10:49.721Z,37.53
2019-04-13T03:13:24.547Z,36.57
2019-04-13T03:16:25.877Z,37.50
2019-04-13T03:19:11.143Z,37.77
2019-04-13T03:21:45.879Z,37.80
2019-04-13T03:24:20.671Z,37.30
2019-04-13T03:26:55.399Z,37.07
2019-04-13T03:29:30.135Z,38.10
2019-04-13T03:32:05.043Z,37.60
2019-04-13T03:34:39.831Z,37.43
2019-04-13T03:37:14.903Z,37.33
2019-04-13T03:39:50.596Z,37.83
2019-04-13T03:42:25.341Z,38.13
2019-04-13T03:45:00.059Z,37.80
2019-04-13T03:47:34.784Z,37.67
2019-04-13T03:50:10.638Z,38.63
2019-04-13T03:52:45.359Z,38.47
2019-04-13T03:55:20.091Z,37.00
2019-04-13T03:57:54.891Z,36.77
2019-04-13T04:00:29.612Z,38.10
2019-04-13T04:03:04.339Z,38.10
2019-04-13T04:05:39.129Z,37.63
2019-04-13T04:08:14.891Z,36.67
2019-04-13T04:10:49.607Z,38.37
2019-04-13T04:13:24.341Z,38.80
2019-04-13T04:15:59.059Z,38.43
2019-04-13T04:18:33.836Z,37.50
2019-04-13T04:21:08.651Z,39.30
2019-04-13T04:23:43.367Z,39.40
2019-04-13T04:26:18.420Z,38.40
2019-04-13T04:28:53.142Z,38.93
2019-04-13T04:31:27.867Z,38.30
2019-04-13T04:34:02.571Z,38.77
2019-04-13T04:36:37.313Z,38.93
2019-04-13T04:39:12.112Z,37.63
2019-04-13T04:41:46.840Z,37.83
2019-04-13T04:44:21.555Z,38.33
2019-04-13T04:46:56.292Z,36.37
2019-04-13T04:49:31.080Z,38.20
2019-04-13T04:52:05.816Z,38.23
2019-04-13T04:54:40.602Z,38.00
2019-04-13T04:57:15.331Z,38.03
2019-04-13T04:59:50.070Z,38.23
2019-04-13T05:02:24.856Z,38.27
2019-04-13T05:04:59.568Z,38.03
2019-04-13T05:07:34.379Z,36.90
2019-04-13T05:10:10.340Z,39.47
2019-04-13T05:12:45.062Z,38.37
2019-04-13T05:15:19.871Z,38.27
2019-04-13T05:17:54.607Z,38.50
2019-04-13T05:20:29.539Z,38.10
2019-04-13T05:23:04.399Z,38.23
2019-04-13T05:25:39.194Z,37.80
2019-04-13T05:28:14.063Z,37.97
2019-04-13T05:30:48.855Z,38.30
2019-04-13T05:33:23.661Z,38.93
2019-04-13T05:35:58.387Z,38.33
2019-04-13T05:38:33.190Z,37.60
2019-04-13T05:41:07.910Z,36.70
2019-04-13T05:43:42.649Z,37.77
2019-04-13T05:46:17.579Z,38.20
2019-04-13T05:48:52.302Z,37.93
2019-04-13T05:51:27.034Z,38.47
2019-04-13T05:54:01.767Z,38.83
2019-04-13T05:56:36.569Z,37.93
2019-04-13T05:59:11.377Z,39.30
2019-04-13T06:01:46.083Z,38.27
2019-04-13T06:04:20.907Z,38.90
2019-04-13T06:07:00.079Z,38.17
2019-04-13T06:09:32.048Z,38.40
2019-04-13T06:12:10.438Z,38.33
2019-04-13T06:14:45.383Z,39.20
2019-04-13T06:17:21.264Z,39.37
2019-04-13T06:19:57.551Z,39.30
2019-04-13T06:22:32.915Z,40.57
2019-04-13T06:25:10.459Z,41.17
2019-04-13T06:27:45.315Z,38.17
2019-04-13T06:30:39.484Z,40.20
2019-04-13T06:33:34.313Z,39.50
2019-04-13T06:36:09.550Z,36.10
2019-04-13T06:38:44.473Z,38.80
2019-04-13T06:41:19.766Z,39.03
2019-04-13T06:44:16.144Z,38.20
2019-04-13T06:46:51.332Z,40.40
2019-04-13T06:49:27.282Z,41.53
2019-04-13T06:52:04.080Z,38.03
2019-04-13T06:54:42.970Z,41.43
2019-04-13T06:57:20.511Z,38.77
2019-04-13T06:59:55.347Z,39.63
2019-04-13T07:02:30.104Z,40.67
2019-04-13T07:05:05.665Z,39.90
2019-04-13T07:08:02.377Z,38.60
2019-04-13T07:11:05.175Z,41.20
2019-04-13T07:13:47.855Z,40.13
2019-04-13T07:16:31.655Z,39.37
2019-04-13T07:19:07.118Z,36.70
2019-04-13T07:21:42.095Z,39.70
2019-04-13T07:24:18.701Z,40.27
2019-04-13T07:26:53.387Z,39.30
2019-04-13T07:29:28.187Z,41.77
2019-04-13T07:32:03.240Z,39.23
2019-04-13T07:34:37.974Z,39.50
2019-04-13T07:37:12.958Z,38.30
2019-04-13T07:39:48.274Z,38.93
2019-04-13T07:42:25.008Z,38.67
2019-04-13T07:45:05.487Z,38.50
2019-04-13T07:47:48.035Z,41.63
2019-04-13T07:50:48.051Z,40.70
2019-04-13T07:53:23.510Z,41.20
2019-04-13T07:55:58.528Z,41.27
2019-04-13T07:58:33.648Z,40.53
2019-04-13T08:01:09.855Z,37.93
2019-04-13T08:03:44.715Z,42.03
2019-04-13T08:06:19.543Z,33.77
2019-04-13T08:08:54.307Z,38.90
2019-04-13T08:11:29.053Z,39.37
2019-04-13T08:14:09.328Z,38.77
2019-04-13T08:16:44.327Z,40.13
2019-04-13T08:19:19.547Z,34.77
2019-04-13T08:21:54.348Z,38.93
2019-04-13T08:24:29.055Z,41.40
2019-04-13T08:27:03.859Z,31.07
2019-04-13T08:29:38.719Z,36.90
2019-04-13T08:32:13.623Z,36.23
2019-04-13T08:34:48.347Z,37.97
2019-04-13T08:37:24.052Z,34.97
2019-04-13T08:40:02.637Z,38.20
2019-04-13T08:42:37.575Z,41.00
2019-04-13T08:45:13.335Z,39.03
2019-04-13T08:47:49.367Z,37.53
2019-04-13T08:50:24.171Z,42.70
2019-04-13T08:52:59.285Z,37.73
2019-04-13T08:55:39.789Z,43.03
2019-04-13T08:58:12.160Z,40.23
2019-04-13T09:00:46.943Z,43.63
2019-04-13T09:03:21.743Z,41.80
2019-04-13T09:05:56.553Z,37.30
2019-04-13T09:08:33.298Z,40.87
2019-04-13T09:11:08.508Z,44.03
2019-04-13T09:13:44.166Z,43.57
2019-04-13T09:16:19.076Z,42.63
2019-04-13T09:19:20.847Z,42.27
2019-04-13T09:21:59.650Z,41.73
2019-04-13T09:24:34.447Z,40.70
2019-04-13T09:27:09.276Z,44.43
2019-04-13T09:29:44.527Z,40.50
2019-04-13T09:32:20.524Z,42.97
2019-04-13T09:34:55.227Z,37.63
2019-04-13T09:37:32.952Z,39.97
2019-04-13T09:40:07.569Z,44.40
2019-04-13T09:42:42.369Z,40.50
2019-04-13T09:45:17.946Z,41.47
2019-04-13T09:47:52.773Z,40.07
2019-04-13T09:50:27.483Z,40.30
2019-04-13T09:53:02.211Z,43.60
2019-04-13T09:55:37.032Z,44.10
2019-04-13T09:58:11.868Z,39.80
2019-04-13T10:00:46.595Z,43.27
2019-04-13T10:03:21.325Z,37.50
2019-04-13T10:05:56.052Z,43.57
2019-04-13T10:08:30.853Z,44.70
2019-04-13T10:11:06.319Z,37.87
2019-04-13T10:14:03.297Z,43.17
2019-04-13T10:16:53.042Z,44.40
2019-04-13T10:19:31.403Z,31.97
2019-04-13T10:22:04.924Z,44.77
2019-04-13T10:24:39.658Z,44.50
2019-04-13T10:27:14.416Z,44.37
2019-04-13T10:29:49.685Z,44.77
2019-04-13T10:32:25.087Z,41.90
2019-04-13T10:34:59.840Z,38.00
2019-04-13T10:37:34.643Z,43.37
2019-04-13T10:40:11.925Z,43.53
2019-04-13T10:42:46.380Z,42.50
2019-04-13T10:45:58.382Z,37.37
2019-04-13T10:48:41.623Z,44.90
2019-04-13T10:51:22.887Z,45.80
2019-04-13T10:53:57.621Z,43.90
2019-04-13T10:56:32.512Z,44.77
2019-04-13T10:59:07.740Z,40.43
2019-04-13T11:01:42.519Z,43.50
2019-04-13T11:04:17.260Z,39.93
2019-04-13T11:06:52.898Z,41.27
2019-04-13T11:09:28.892Z,43.90
2019-04-13T11:12:04.436Z,43.70
2019-04-13T11:14:40.243Z,42.60
2019-04-13T11:17:15.141Z,42.97
2019-04-13T11:19:50.014Z,46.03
2019-04-13T11:22:24.805Z,38.83
2019-04-13T11:25:02.719Z,45.63
2019-04-13T11:27:38.400Z,45.37
2019-04-13T11:30:13.379Z,48.60
2019-04-13T11:32:48.092Z,45.10
2019-04-13T11:35:22.891Z,45.90
2019-04-13T11:37:57.603Z,44.80
2019-04-13T11:40:32.327Z,44.40
2019-04-13T11:43:26.110Z,46.43
2019-04-13T11:46:17.590Z,45.13
2019-04-13T11:49:02.422Z,46.30
2019-04-13T11:51:37.385Z,44.83
2019-04-13T11:54:12.115Z,46.33
2019-04-13T11:56:47.274Z,44.87
2019-04-13T11:59:23.287Z,45.73
2019-04-13T12:02:18.195Z,46.10
2019-04-13T12:05:14.069Z,45.27
2019-04-13T12:08:02.040Z,45.43
2019-04-13T12:10:48.592Z,46.80
2019-04-13T12:13:37.170Z,43.00
2019-04-13T12:16:29.657Z,44.43
2019-04-13T12:19:10.265Z,45.10
2019-04-13T12:21:50.651Z,45.30
2019-04-13T12:24:30.976Z,43.73
2019-04-13T12:27:05.918Z,45.90
2019-04-13T12:29:40.669Z,44.77
2019-04-13T12:32:23.807Z,45.33
2019-04-13T12:35:07.411Z,43.13
2019-04-13T12:37:38.471Z,43.43
2019-04-13T12:40:47.731Z,44.47
2019-04-13T12:43:23.463Z,42.77
2019-04-13T12:45:58.376Z,44.53
2019-04-13T12:48:33.102Z,44.73
2019-04-13T12:51:08.147Z,43.30
2019-04-13T12:53:42.863Z,46.40
2019-04-13T12:56:17.672Z,44.63
2019-04-13T12:58:55.285Z,42.50
2019-04-13T13:01:46.007Z,46.00
2019-04-13T13:04:32.989Z,44.83
2019-04-13T13:07:08.434Z,44.50
2019-04-13T13:09:44.426Z,43.67
2019-04-13T13:12:19.328Z,46.80
2019-04-13T13:14:54.040Z,46.57
2019-04-13T13:17:28.931Z,45.17
2019-04-13T13:20:03.835Z,47.23
2019-04-13T13:22:38.719Z,46.40
2019-04-13T13:25:14.044Z,45.90
2019-04-13T13:27:49.459Z,46.17
2019-04-13T13:30:24.420Z,47.10
2019-04-13T13:32:59.336Z,48.30
2019-04-13T13:35:34.155Z,45.10
2019-04-13T13:38:10.016Z,41.33
2019-04-13T13:40:44.803Z,44.10
2019-04-13T13:43:19.553Z,43.90
2019-04-13T13:45:54.257Z,36.30
2019-04-13T13:48:28.979Z,45.23
2019-04-13T13:51:03.776Z,44.70
2019-04-13T13:53:39.402Z,45.47
2019-04-13T13:56:15.046Z,46.40
2019-04-13T13:59:00.967Z,43.77
2019-04-13T14:01:43.230Z,46.10
2019-04-13T14:04:17.484Z,44.00
2019-04-13T14:06:52.215Z,41.83
2019-04-13T14:09:28.251Z,44.63
2019-04-13T14:12:03.335Z,46.27
2019-04-13T14:14:38.165Z,43.37
2019-04-13T14:17:12.899Z,43.43
2019-04-13T14:19:47.637Z,43.60
2019-04-13T14:22:22.363Z,45.37
2019-04-13T14:24:58.472Z,46.90
2019-04-13T14:27:34.055Z,45.13
2019-04-13T14:30:09.833Z,44.77
2019-04-13T14:32:44.648Z,40.63
2019-04-13T14:35:19.360Z,38.03
2019-04-13T14:37:54.167Z,44.00
2019-04-13T14:40:30.290Z,42.83
2019-04-13T14:43:05.293Z,43.03
2019-04-13T14:45:40.028Z,42.37
2019-04-13T14:48:14.831Z,43.40
2019-04-13T14:50:49.572Z,44.50
2019-04-13T14:53:24.311Z,44.10
2019-04-13T14:56:04.120Z,44.80
2019-04-13T14:58:35.727Z,46.20
2019-04-13T15:01:10.521Z,44.03
2019-04-13T15:03:45.266Z,42.03
2019-04-13T15:06:21.240Z,46.10
2019-04-13T15:08:57.067Z,44.03
2019-04-13T15:11:31.817Z,44.17
2019-04-13T15:14:06.693Z,46.30
2019-04-13T15:16:42.161Z,43.40
2019-04-13T15:19:31.182Z,45.30
2019-04-13T15:21:59.250Z,42.13
2019-04-13T15:24:34.984Z,46.00
2019-04-13T15:27:09.943Z,45.03
2019-04-13T15:29:45.623Z,43.20
2019-04-13T15:32:25.144Z,46.70
2019-04-13T15:34:57.651Z,45.10
2019-04-13T15:37:37.537Z,45.60
2019-04-13T15:40:09.434Z,42.90
2019-04-13T15:42:53.432Z,45.27
2019-04-13T15:45:20.656Z,43.07
2019-04-13T15:47:55.451Z,44.67
2019-04-13T15:50:30.490Z,44.73
2019-04-13T15:53:05.455Z,44.30
2019-04-13T15:55:40.392Z,44.40
2019-04-13T15:58:16.994Z,44.83
2019-04-13T16:00:54.630Z,42.23
2019-04-13T16:03:30.440Z,44.57
2019-04-13T16:06:05.415Z,44.47
2019-04-13T16:09:05.521Z,45.87
2019-04-13T16:11:51.153Z,44.03
2019-04-13T16:14:20.919Z,44.27
2019-04-13T16:16:56.650Z,42.67
2019-04-13T16:19:32.957Z,45.43
2019-04-13T16:22:07.741Z,47.63
2019-04-13T16:24:42.484Z,50.03
2019-04-13T16:27:18.470Z,47.87
2019-04-13T16:30:15.459Z,46.47
2019-04-13T16:33:21.591Z,46.30
2019-04-13T16:36:01.792Z,46.33
2019-04-13T16:38:50.401Z,46.00
2019-04-13T16:41:13.572Z,45.93
2019-04-13T16:43:53.778Z,45.67
2019-04-13T16:46:49.307Z,45.40
2019-04-13T16:49:56.856Z,46.20
2019-04-13T16:52:45.127Z,45.13
2019-04-13T16:55:26.669Z,46.60
2019-04-13T16:58:05.846Z,45.30
2019-04-13T17:00:58.092Z,47.23
2019-04-13T17:03:43.754Z,46.03
2019-04-13T17:06:19.036Z,45.70
2019-04-13T17:08:53.915Z,45.80
2019-04-13T17:11:29.754Z,48.00
2019-04-13T17:14:05.842Z,45.37
2019-04-13T17:16:41.989Z,43.40
2019-04-13T17:19:47.045Z,44.23
2019-04-13T17:22:32.197Z,45.50
2019-04-13T17:25:20.817Z,44.47
2019-04-13T17:28:13.437Z,45.10
2019-04-13T17:30:59.907Z,43.80
2019-04-13T17:33:44.822Z,47.50
2019-04-13T17:36:20.145Z,45.93
2019-04-13T17:38:55.903Z,46.03
2019-04-13T17:41:48.369Z,44.87
2019-04-13T17:44:33.804Z,46.97
2019-04-13T17:47:43.140Z,47.70
2019-04-13T17:50:43.107Z,46.37
2019-04-13T17:53:53.758Z,46.90
2019-04-13T17:56:29.799Z,47.00
2019-04-13T17:59:42.984Z,45.83
2019-04-13T18:02:36.779Z,44.67
2019-04-13T18:05:34.326Z,45.47
2019-04-13T18:08:20.171Z,44.73
2019-04-13T18:11:07.163Z,44.60
2019-04-13T18:13:52.893Z,44.77
2019-04-13T18:16:39.935Z,45.13
2019-04-13T18:19:17.081Z,45.97
2019-04-13T18:21:51.941Z,44.27
2019-04-13T18:24:26.800Z,45.93
2019-04-13T18:27:02.971Z,47.37
2019-04-13T18:29:38.478Z,45.70
2019-04-13T18:32:13.469Z,46.00
2019-04-13T18:34:48.245Z,44.80
2019-04-13T18:37:24.278Z,45.97
2019-04-13T18:39:59.451Z,45.47
2019-04-13T18:42:34.750Z,45.77
2019-04-13T18:45:09.792Z,46.43
2019-04-13T18:47:44.992Z,45.63
2019-04-13T18:50:20.323Z,48.17
2019-04-13T18:52:55.329Z,47.57
2019-04-13T18:55:30.912Z,53.13
2019-04-13T18:58:09.369Z,57.90
2019-04-13T19:00:42.739Z,52.07
2019-04-13T19:03:17.467Z,53.13
2019-04-13T19:05:52.332Z,50.07
2019-04-13T19:08:27.131Z,49.33
2019-04-13T19:11:01.963Z,49.20
2019-04-13T19:13:36.769Z,49.93
2019-04-13T19:16:11.479Z,48.17
2019-04-13T19:18:46.571Z,49.13
2019-04-13T19:21:21.383Z,47.30
2019-04-13T19:23:56.120Z,47.33
2019-04-13T19:26:30.909Z,47.23
2019-04-13T19:29:05.839Z,48.73
2019-04-13T19:31:40.565Z,47.87
2019-04-13T19:34:15.487Z,46.60
2019-04-13T19:36:51.389Z,46.57
2019-04-13T19:39:26.117Z,46.73
2019-04-13T19:42:00.845Z,46.40
2019-04-13T19:44:35.579Z,45.77
2019-04-13T19:47:10.303Z,46.13
2019-04-13T19:49:45.130Z,47.57
2019-04-13T19:52:41.768Z,46.53
2019-04-13T19:55:16.771Z,46.73
2019-04-13T19:57:51.497Z,46.00
2019-04-13T20:00:30.625Z,48.93
2019-04-13T20:03:05.499Z,48.30
2019-04-13T20:05:40.220Z,47.90
2019-04-13T20:08:15.035Z,49.30
2019-04-13T20:10:49.770Z,47.60
2019-04-13T20:13:38.084Z,48.10
2019-04-13T20:16:01.745Z,47.00
2019-04-13T20:18:36.593Z,47.17
2019-04-13T20:21:11.315Z,48.83
2019-04-13T20:23:46.107Z,48.37
2019-04-13T20:26:20.855Z,50.70
2019-04-13T20:28:55.680Z,48.50
2019-04-13T20:31:31.153Z,49.17
2019-04-13T20:34:07.739Z,48.83
2019-04-13T20:36:43.030Z,49.07
2019-04-13T20:39:18.782Z,48.50
2019-04-13T20:41:59.211Z,48.30
2019-04-13T20:44:30.185Z,49.77
2019-04-13T20:47:05.070Z,48.87
2019-04-13T20:49:39.824Z,49.43
2019-04-13T20:52:14.559Z,50.80
2019-04-13T20:54:50.440Z,47.97
2019-04-13T20:57:26.089Z,48.73
2019-04-13T21:00:00.921Z,49.20
2019-04-13T21:02:35.812Z,49.80
2019-04-13T21:05:12.102Z,48.30
2019-04-13T21:07:47.058Z,53.75
2019-04-13T21:10:21.793Z,49.70
2019-04-13T21:12:56.536Z,49.47
2019-04-13T21:15:31.446Z,48.20
2019-04-13T21:18:06.356Z,48.50
2019-04-13T21:20:43.209Z,48.03
2019-04-13T21:23:18.802Z,49.37
2019-04-13T21:25:53.712Z,51.13
2019-04-13T21:28:29.684Z,49.97
2019-04-13T21:31:04.535Z,51.00
2019-04-13T21:33:39.255Z,48.93
2019-04-13T21:36:15.180Z,48.47
2019-04-13T21:38:50.008Z,49.57
2019-04-13T21:41:26.158Z,49.63
2019-04-13T21:44:13.324Z,49.77
2019-04-13T21:46:39.300Z,49.63
2019-04-13T21:49:14.400Z,49.93
2019-04-13T21:51:55.199Z,49.03
2019-04-13T21:54:34.359Z,48.67
2019-04-13T21:57:09.156Z,51.40
2019-04-13T21:59:43.931Z,49.97
2019-04-13T22:02:22.345Z,50.90
2019-04-13T22:04:58.590Z,50.00
2019-04-13T22:07:33.523Z,49.07
2019-04-13T22:10:09.399Z,49.20
2019-04-13T22:12:44.184Z,50.63
2019-04-13T22:15:20.137Z,48.97
2019-04-13T22:17:55.394Z,49.53
2019-04-13T22:20:30.219Z,49.77
2019-04-13T22:23:05.090Z,50.13
2019-04-13T22:25:40.539Z,50.70
2019-04-13T22:28:17.933Z,49.90
2019-04-13T22:31:02.853Z,50.30
2019-04-13T22:33:37.567Z,49.03
2019-04-13T22:36:20.234Z,49.40
2019-04-13T22:38:54.991Z,49.27
2019-04-13T22:41:30.729Z,49.77
2019-04-13T22:44:18.191Z,48.57
2019-04-13T22:46:52.984Z,49.03
2019-04-13T22:49:36.320Z,48.23
2019-04-13T22:52:29.947Z,50.47
2019-04-13T22:55:16.464Z,49.37
2019-04-13T22:57:52.212Z,48.97
2019-04-13T23:00:52.077Z,48.70
2019-04-13T23:03:26.896Z,48.63
2019-04-13T23:06:01.638Z,49.10
2019-04-13T23:08:36.364Z,48.47
2019-04-13T23:11:11.098Z,48.40
2019-04-13T23:13:47.058Z,49.87
2019-04-13T23:16:23.814Z,48.30
2019-04-13T23:18:58.581Z,49.10
2019-04-13T23:21:35.379Z,49.03
2019-04-13T23:24:10.356Z,50.33
2019-04-13T23:26:47.257Z,48.70
2019-04-13T23:29:22.048Z,49.77
2019-04-13T23:31:56.791Z,48.50
2019-04-13T23:34:31.511Z,47.63
2019-04-13T23:37:06.236Z,49.27
2019-04-13T23:39:41.050Z,48.90
2019-04-13T23:42:15.804Z,48.23
2019-04-13T23:44:54.521Z,48.57
2019-04-13T23:47:29.666Z,47.83
2019-04-13T23:50:05.458Z,49.50
2019-04-13T23:52:43.412Z,47.17
2019-04-13T23:55:21.067Z,46.47
2019-04-13T23:58:10.347Z,47.67
